<?xml version="1.0" encoding="UTF-8" standalone="no" ?>
<gpx xmlns="http://www.topografix.com/GPX/1/1" xmlns:xsi="http://www.w3.org/2001/XMLSchema-instance" xsi:schemaLocation="http://www.topografix.com/GPX/1/1 http://www.topografix.com/GPX/1/1/gpx.xsd" version="1.1" creator="VisuGPX - https://www.visugpx.com">
  <metadata>
    <name>boucles beaumont</name>
    <desc><![CDATA[boucles beaumont du périgord]]></desc>
  </metadata>
  <trk>
    <name><![CDATA[BBmt53]]></name>
    <trkseg>
      <trkpt lat="44.74348" lon="0.74258">
        <ele>158</ele>
        <time>2009-01-15T14:26:22Z</time>
      </trkpt>
      <trkpt lat="44.74338" lon="0.7428">
        <ele>157</ele>
        <time>2009-01-15T14:26:28Z</time>
      </trkpt>
      <trkpt lat="44.74325" lon="0.74308">
        <ele>158</ele>
        <time>2009-01-15T14:26:31Z</time>
      </trkpt>
      <trkpt lat="44.74313" lon="0.74338">
        <ele>158</ele>
        <time>2009-01-15T14:26:34Z</time>
      </trkpt>
      <trkpt lat="44.74303" lon="0.74363">
        <ele>158</ele>
        <time>2009-01-15T14:26:36Z</time>
      </trkpt>
      <trkpt lat="44.7429" lon="0.74385">
        <ele>158</ele>
        <time>2009-01-15T14:26:42Z</time>
      </trkpt>
      <trkpt lat="44.74278" lon="0.7441">
        <ele>157</ele>
        <time>2009-01-15T14:26:46Z</time>
      </trkpt>
      <trkpt lat="44.74263" lon="0.74438">
        <ele>157</ele>
        <time>2009-01-15T14:26:49Z</time>
      </trkpt>
      <trkpt lat="44.74248" lon="0.74468">
        <ele>156</ele>
        <time>2009-01-15T14:26:52Z</time>
      </trkpt>
      <trkpt lat="44.74233" lon="0.74498">
        <ele>157</ele>
        <time>2009-01-15T14:26:55Z</time>
      </trkpt>
      <trkpt lat="44.7422" lon="0.7453">
        <ele>157</ele>
        <time>2009-01-15T14:26:58Z</time>
      </trkpt>
      <trkpt lat="44.7421" lon="0.7456">
        <ele>158</ele>
        <time>2009-01-15T14:27:01Z</time>
      </trkpt>
      <trkpt lat="44.742" lon="0.74595">
        <ele>158</ele>
        <time>2009-01-15T14:27:04Z</time>
      </trkpt>
      <trkpt lat="44.7419" lon="0.74625">
        <ele>157</ele>
        <time>2009-01-15T14:27:07Z</time>
      </trkpt>
      <trkpt lat="44.74178" lon="0.7466">
        <ele>157</ele>
        <time>2009-01-15T14:27:10Z</time>
      </trkpt>
      <trkpt lat="44.74168" lon="0.74693">
        <ele>156</ele>
        <time>2009-01-15T14:27:13Z</time>
      </trkpt>
      <trkpt lat="44.74158" lon="0.74723">
        <ele>155</ele>
        <time>2009-01-15T14:27:16Z</time>
      </trkpt>
      <trkpt lat="44.74148" lon="0.7475">
        <ele>155</ele>
        <time>2009-01-15T14:27:19Z</time>
      </trkpt>
      <trkpt lat="44.74133" lon="0.74773">
        <ele>155</ele>
        <time>2009-01-15T14:27:22Z</time>
      </trkpt>
      <trkpt lat="44.74118" lon="0.74793">
        <ele>156</ele>
        <time>2009-01-15T14:27:25Z</time>
      </trkpt>
      <trkpt lat="44.74098" lon="0.74815">
        <ele>157</ele>
        <time>2009-01-15T14:27:28Z</time>
      </trkpt>
      <trkpt lat="44.74083" lon="0.7483">
        <ele>159</ele>
        <time>2009-01-15T14:27:30Z</time>
      </trkpt>
      <trkpt lat="44.74063" lon="0.74853">
        <ele>159</ele>
        <time>2009-01-15T14:27:33Z</time>
      </trkpt>
      <trkpt lat="44.74045" lon="0.74883">
        <ele>157</ele>
        <time>2009-01-15T14:27:36Z</time>
      </trkpt>
      <trkpt lat="44.74033" lon="0.74915">
        <ele>156</ele>
        <time>2009-01-15T14:27:39Z</time>
      </trkpt>
      <trkpt lat="44.74023" lon="0.74943">
        <ele>154</ele>
        <time>2009-01-15T14:27:42Z</time>
      </trkpt>
      <trkpt lat="44.74013" lon="0.74965">
        <ele>152</ele>
        <time>2009-01-15T14:27:47Z</time>
      </trkpt>
      <trkpt lat="44.73998" lon="0.74988">
        <ele>149</ele>
        <time>2009-01-15T14:27:54Z</time>
      </trkpt>
      <trkpt lat="44.73983" lon="0.75015">
        <ele>148</ele>
        <time>2009-01-15T14:28:00Z</time>
      </trkpt>
      <trkpt lat="44.73975" lon="0.7504">
        <ele>147</ele>
        <time>2009-01-15T14:28:03Z</time>
      </trkpt>
      <trkpt lat="44.7397" lon="0.75073">
        <ele>146</ele>
        <time>2009-01-15T14:28:06Z</time>
      </trkpt>
      <trkpt lat="44.73968" lon="0.75108">
        <ele>144</ele>
        <time>2009-01-15T14:28:09Z</time>
      </trkpt>
      <trkpt lat="44.73965" lon="0.75138">
        <ele>144</ele>
        <time>2009-01-15T14:28:12Z</time>
      </trkpt>
      <trkpt lat="44.7396" lon="0.75165">
        <ele>145</ele>
        <time>2009-01-15T14:28:16Z</time>
      </trkpt>
      <trkpt lat="44.7396" lon="0.75195">
        <ele>146</ele>
        <time>2009-01-15T14:28:24Z</time>
      </trkpt>
      <trkpt lat="44.73955" lon="0.7522">
        <ele>147</ele>
        <time>2009-01-15T14:28:32Z</time>
      </trkpt>
      <trkpt lat="44.7395" lon="0.75245">
        <ele>147</ele>
        <time>2009-01-15T14:28:36Z</time>
      </trkpt>
      <trkpt lat="44.73945" lon="0.75273">
        <ele>148</ele>
        <time>2009-01-15T14:28:41Z</time>
      </trkpt>
      <trkpt lat="44.7394" lon="0.75298">
        <ele>149</ele>
        <time>2009-01-15T14:28:46Z</time>
      </trkpt>
      <trkpt lat="44.7393" lon="0.7532">
        <ele>149</ele>
        <time>2009-01-15T14:28:59Z</time>
      </trkpt>
      <trkpt lat="44.7392" lon="0.75345">
        <ele>146</ele>
        <time>2009-01-15T14:34:54Z</time>
      </trkpt>
      <trkpt lat="44.73903" lon="0.7536">
        <ele>144</ele>
        <time>2009-01-15T14:35:01Z</time>
      </trkpt>
      <trkpt lat="44.73893" lon="0.75383">
        <ele>143</ele>
        <time>2009-01-15T14:35:10Z</time>
      </trkpt>
      <trkpt lat="44.73883" lon="0.75408">
        <ele>144</ele>
        <time>2009-01-15T14:35:16Z</time>
      </trkpt>
      <trkpt lat="44.73875" lon="0.75435">
        <ele>145</ele>
        <time>2009-01-15T14:35:23Z</time>
      </trkpt>
      <trkpt lat="44.7387" lon="0.75463">
        <ele>141</ele>
        <time>2009-01-15T14:35:37Z</time>
      </trkpt>
      <trkpt lat="44.7386" lon="0.75485">
        <ele>142</ele>
        <time>2009-01-15T14:35:45Z</time>
      </trkpt>
      <trkpt lat="44.73613" lon="0.7576">
        <ele>160</ele>
        <time>2009-01-15T14:58:28Z</time>
      </trkpt>
      <trkpt lat="44.73595" lon="0.75775">
        <ele>160</ele>
        <time>2009-01-15T14:58:39Z</time>
      </trkpt>
      <trkpt lat="44.7358" lon="0.7579">
        <ele>160</ele>
        <time>2009-01-15T14:58:44Z</time>
      </trkpt>
      <trkpt lat="44.73563" lon="0.75803">
        <ele>159</ele>
        <time>2009-01-15T14:58:49Z</time>
      </trkpt>
      <trkpt lat="44.73545" lon="0.7582">
        <ele>159</ele>
        <time>2009-01-15T14:58:53Z</time>
      </trkpt>
      <trkpt lat="44.73525" lon="0.7583">
        <ele>158</ele>
        <time>2009-01-15T14:58:57Z</time>
      </trkpt>
      <trkpt lat="44.73508" lon="0.75838">
        <ele>156</ele>
        <time>2009-01-15T14:59:01Z</time>
      </trkpt>
      <trkpt lat="44.7349" lon="0.75853">
        <ele>157</ele>
        <time>2009-01-15T14:59:05Z</time>
      </trkpt>
      <trkpt lat="44.73473" lon="0.7587">
        <ele>159</ele>
        <time>2009-01-15T14:59:09Z</time>
      </trkpt>
      <trkpt lat="44.73458" lon="0.75888">
        <ele>159</ele>
        <time>2009-01-15T14:59:13Z</time>
      </trkpt>
      <trkpt lat="44.73445" lon="0.75908">
        <ele>161</ele>
        <time>2009-01-15T14:59:17Z</time>
      </trkpt>
      <trkpt lat="44.73433" lon="0.7593">
        <ele>162</ele>
        <time>2009-01-15T14:59:21Z</time>
      </trkpt>
      <trkpt lat="44.73415" lon="0.75953">
        <ele>162</ele>
        <time>2009-01-15T14:59:25Z</time>
      </trkpt>
      <trkpt lat="44.734" lon="0.75975">
        <ele>163</ele>
        <time>2009-01-15T14:59:29Z</time>
      </trkpt>
      <trkpt lat="44.73388" lon="0.75995">
        <ele>162</ele>
        <time>2009-01-15T14:59:33Z</time>
      </trkpt>
      <trkpt lat="44.73388" lon="0.76025">
        <ele>160</ele>
        <time>2009-01-15T14:59:48Z</time>
      </trkpt>
      <trkpt lat="44.73403" lon="0.7605">
        <ele>163</ele>
        <time>2009-01-15T14:59:52Z</time>
      </trkpt>
      <trkpt lat="44.73413" lon="0.76073">
        <ele>165</ele>
        <time>2009-01-15T14:59:55Z</time>
      </trkpt>
      <trkpt lat="44.73423" lon="0.76095">
        <ele>164</ele>
        <time>2009-01-15T14:59:58Z</time>
      </trkpt>
      <trkpt lat="44.73435" lon="0.76118">
        <ele>164</ele>
        <time>2009-01-15T15:00:02Z</time>
      </trkpt>
      <trkpt lat="44.73448" lon="0.7614">
        <ele>162</ele>
        <time>2009-01-15T15:00:19Z</time>
      </trkpt>
      <trkpt lat="44.7346" lon="0.76165">
        <ele>161</ele>
        <time>2009-01-15T15:00:22Z</time>
      </trkpt>
      <trkpt lat="44.7347" lon="0.76188">
        <ele>161</ele>
        <time>2009-01-15T15:00:25Z</time>
      </trkpt>
      <trkpt lat="44.73483" lon="0.76213">
        <ele>162</ele>
        <time>2009-01-15T15:00:28Z</time>
      </trkpt>
      <trkpt lat="44.73495" lon="0.76233">
        <ele>164</ele>
        <time>2009-01-15T15:00:30Z</time>
      </trkpt>
      <trkpt lat="44.7351" lon="0.76263">
        <ele>167</ele>
        <time>2009-01-15T15:00:33Z</time>
      </trkpt>
      <trkpt lat="44.73523" lon="0.76285">
        <ele>169</ele>
        <time>2009-01-15T15:00:35Z</time>
      </trkpt>
      <trkpt lat="44.73538" lon="0.76313">
        <ele>172</ele>
        <time>2009-01-15T15:00:38Z</time>
      </trkpt>
      <trkpt lat="44.73553" lon="0.7634">
        <ele>174</ele>
        <time>2009-01-15T15:00:42Z</time>
      </trkpt>
      <trkpt lat="44.73565" lon="0.76365">
        <ele>175</ele>
        <time>2009-01-15T15:00:46Z</time>
      </trkpt>
      <trkpt lat="44.73575" lon="0.76388">
        <ele>175</ele>
        <time>2009-01-15T15:00:50Z</time>
      </trkpt>
      <trkpt lat="44.73588" lon="0.76413">
        <ele>173</ele>
        <time>2009-01-15T15:00:54Z</time>
      </trkpt>
      <trkpt lat="44.736" lon="0.76435">
        <ele>171</ele>
        <time>2009-01-15T15:00:58Z</time>
      </trkpt>
      <trkpt lat="44.73613" lon="0.7646">
        <ele>168</ele>
        <time>2009-01-15T15:01:02Z</time>
      </trkpt>
      <trkpt lat="44.73623" lon="0.76483">
        <ele>167</ele>
        <time>2009-01-15T15:01:05Z</time>
      </trkpt>
      <trkpt lat="44.73638" lon="0.76508">
        <ele>164</ele>
        <time>2009-01-15T15:01:08Z</time>
      </trkpt>
      <trkpt lat="44.73653" lon="0.76538">
        <ele>161</ele>
        <time>2009-01-15T15:01:11Z</time>
      </trkpt>
      <trkpt lat="44.73665" lon="0.76563">
        <ele>159</ele>
        <time>2009-01-15T15:01:14Z</time>
      </trkpt>
      <trkpt lat="44.73658" lon="0.76588">
        <ele>156</ele>
        <time>2009-01-15T15:01:33Z</time>
      </trkpt>
      <trkpt lat="44.73638" lon="0.76593">
        <ele>155</ele>
        <time>2009-01-15T15:01:38Z</time>
      </trkpt>
      <trkpt lat="44.73615" lon="0.766">
        <ele>156</ele>
        <time>2009-01-15T15:01:43Z</time>
      </trkpt>
      <trkpt lat="44.73595" lon="0.76603">
        <ele>155</ele>
        <time>2009-01-15T15:01:47Z</time>
      </trkpt>
      <trkpt lat="44.73575" lon="0.7661">
        <ele>155</ele>
        <time>2009-01-15T15:01:51Z</time>
      </trkpt>
      <trkpt lat="44.73553" lon="0.76615">
        <ele>155</ele>
        <time>2009-01-15T15:01:55Z</time>
      </trkpt>
      <trkpt lat="44.7353" lon="0.76623">
        <ele>155</ele>
        <time>2009-01-15T15:01:59Z</time>
      </trkpt>
      <trkpt lat="44.7351" lon="0.76628">
        <ele>155</ele>
        <time>2009-01-15T15:02:03Z</time>
      </trkpt>
      <trkpt lat="44.7349" lon="0.76635">
        <ele>156</ele>
        <time>2009-01-15T15:02:09Z</time>
      </trkpt>
      <trkpt lat="44.7347" lon="0.76648">
        <ele>156</ele>
        <time>2009-01-15T15:02:13Z</time>
      </trkpt>
      <trkpt lat="44.73453" lon="0.76655">
        <ele>157</ele>
        <time>2009-01-15T15:02:16Z</time>
      </trkpt>
      <trkpt lat="44.73435" lon="0.76665">
        <ele>157</ele>
        <time>2009-01-15T15:02:19Z</time>
      </trkpt>
      <trkpt lat="44.73415" lon="0.7667">
        <ele>158</ele>
        <time>2009-01-15T15:02:22Z</time>
      </trkpt>
      <trkpt lat="44.73398" lon="0.76678">
        <ele>158</ele>
        <time>2009-01-15T15:02:25Z</time>
      </trkpt>
      <trkpt lat="44.7338" lon="0.76685">
        <ele>158</ele>
        <time>2009-01-15T15:02:29Z</time>
      </trkpt>
      <trkpt lat="44.73363" lon="0.76693">
        <ele>160</ele>
        <time>2009-01-15T15:02:33Z</time>
      </trkpt>
      <trkpt lat="44.73345" lon="0.76685">
        <ele>163</ele>
        <time>2009-01-15T15:02:41Z</time>
      </trkpt>
      <trkpt lat="44.7333" lon="0.76665">
        <ele>164</ele>
        <time>2009-01-15T15:02:47Z</time>
      </trkpt>
      <trkpt lat="44.73318" lon="0.76645">
        <ele>165</ele>
        <time>2009-01-15T15:03:03Z</time>
      </trkpt>
      <trkpt lat="44.72933" lon="0.7669">
        <ele>164</ele>
        <time>2009-01-15T15:14:32Z</time>
      </trkpt>
      <trkpt lat="44.72913" lon="0.76688">
        <ele>160</ele>
        <time>2009-01-15T15:14:49Z</time>
      </trkpt>
      <trkpt lat="44.72893" lon="0.76688">
        <ele>162</ele>
        <time>2009-01-15T15:14:54Z</time>
      </trkpt>
      <trkpt lat="44.72873" lon="0.76688">
        <ele>162</ele>
        <time>2009-01-15T15:14:58Z</time>
      </trkpt>
      <trkpt lat="44.72853" lon="0.76688">
        <ele>161</ele>
        <time>2009-01-15T15:15:02Z</time>
      </trkpt>
      <trkpt lat="44.7283" lon="0.76688">
        <ele>160</ele>
        <time>2009-01-15T15:15:07Z</time>
      </trkpt>
      <trkpt lat="44.7281" lon="0.76688">
        <ele>160</ele>
        <time>2009-01-15T15:15:11Z</time>
      </trkpt>
      <trkpt lat="44.72788" lon="0.7669">
        <ele>161</ele>
        <time>2009-01-15T15:15:16Z</time>
      </trkpt>
      <trkpt lat="44.72765" lon="0.7669">
        <ele>159</ele>
        <time>2009-01-15T15:15:21Z</time>
      </trkpt>
      <trkpt lat="44.72745" lon="0.7669">
        <ele>159</ele>
        <time>2009-01-15T15:15:25Z</time>
      </trkpt>
      <trkpt lat="44.72723" lon="0.76688">
        <ele>160</ele>
        <time>2009-01-15T15:15:30Z</time>
      </trkpt>
      <trkpt lat="44.72703" lon="0.76688">
        <ele>162</ele>
        <time>2009-01-15T15:15:58Z</time>
      </trkpt>
      <trkpt lat="44.72688" lon="0.76663">
        <ele>157</ele>
        <time>2009-01-15T15:16:06Z</time>
      </trkpt>
      <trkpt lat="44.72675" lon="0.76638">
        <ele>154</ele>
        <time>2009-01-15T15:16:10Z</time>
      </trkpt>
      <trkpt lat="44.72663" lon="0.76618">
        <ele>153</ele>
        <time>2009-01-15T15:16:13Z</time>
      </trkpt>
      <trkpt lat="44.7265" lon="0.76593">
        <ele>153</ele>
        <time>2009-01-15T15:16:18Z</time>
      </trkpt>
      <trkpt lat="44.72638" lon="0.7657">
        <ele>152</ele>
        <time>2009-01-15T15:16:24Z</time>
      </trkpt>
    </trkseg>
  </trk>
</gpx>